sensor_id;sensor_type;location;lat;lon;timestamp;P1;durP1;ratioP1;P2;durP2;ratioP2
25984;SDS011;66753;53.848;10.658;2023-05-07T00:12:35;11.40;;;6.57;;
25984;SDS011;66753;53.848;10.658;2023-05-07T00:27:35;12.60;;;6.53;;
25984;SDS011;66753;53.848;10.658;2023-05-07T00:42:36;11.95;;;6.35;;
25984;SDS011;66753;53.848;10.658;2023-05-07T00:57:37;10.57;;;6.07;;
25984;SDS011;66753;53.848;10.658;2023-05-07T01:12:40;11.43;;;6.37;;
25984;SDS011;66753;53.848;10.658;2023-05-07T01:27:42;12.77;;;6.57;;
25984;SDS011;66753;53.848;10.658;2023-05-07T01:42:43;10.48;;;6.85;;
25984;SDS011;66753;53.848;10.658;2023-05-07T01:57:44;10.40;;;5.83;;
25984;SDS011;66753;53.848;10.658;2023-05-07T02:12:45;9.27;;;5.13;;
25984;SDS011;66753;53.848;10.658;2023-05-07T02:27:45;12.13;;;5.88;;
25984;SDS011;66753;53.848;10.658;2023-05-07T02:42:46;7.72;;;4.82;;
25984;SDS011;66753;53.848;10.658;2023-05-07T02:57:47;9.37;;;5.43;;
25984;SDS011;66753;53.848;10.658;2023-05-07T03:12:47;9.82;;;5.38;;
25984;SDS011;66753;53.848;10.658;2023-05-07T03:27:48;8.27;;;4.90;;
25984;SDS011;66753;53.848;10.658;2023-05-07T03:42:48;11.23;;;6.28;;
25984;SDS011;66753;53.848;10.658;2023-05-07T03:57:49;9.27;;;5.65;;
25984;SDS011;66753;53.848;10.658;2023-05-07T04:12:49;10.70;;;6.47;;
25984;SDS011;66753;53.848;10.658;2023-05-07T04:27:50;9.43;;;5.53;;
25984;SDS011;66753;53.848;10.658;2023-05-07T04:42:50;8.75;;;5.57;;
25984;SDS011;66753;53.848;10.658;2023-05-07T04:57:52;10.03;;;4.90;;
25984;SDS011;66753;53.848;10.658;2023-05-07T05:12:53;9.47;;;5.13;;
25984;SDS011;66753;53.848;10.658;2023-05-07T05:27:54;8.77;;;5.00;;
25984;SDS011;66753;53.848;10.658;2023-05-07T05:42:54;8.32;;;4.60;;
25984;SDS011;66753;53.848;10.658;2023-05-07T05:57:55;9.43;;;5.57;;
25984;SDS011;66753;53.848;10.658;2023-05-07T06:12:56;6.53;;;4.40;;
25984;SDS011;66753;53.848;10.658;2023-05-07T06:27:57;7.50;;;3.95;;
25984;SDS011;66753;53.848;10.658;2023-05-07T06:42:57;7.28;;;3.72;;
25984;SDS011;66753;53.848;10.658;2023-05-07T06:57:58;9.05;;;4.40;;
25984;SDS011;66753;53.848;10.658;2023-05-07T07:13:01;7.47;;;4.40;;
25984;SDS011;66753;53.848;10.658;2023-05-07T07:28:01;7.18;;;4.10;;
25984;SDS011;66753;53.848;10.658;2023-05-07T07:43:03;4.93;;;3.07;;
25984;SDS011;66753;53.848;10.658;2023-05-07T07:58:03;5.20;;;3.10;;
25984;SDS011;66753;53.848;10.658;2023-05-07T08:13:03;4.82;;;3.28;;
25984;SDS011;66753;53.848;10.658;2023-05-07T08:28:05;5.43;;;3.60;;
25984;SDS011;66753;53.848;10.658;2023-05-07T08:43:06;5.00;;;4.00;;
25984;SDS011;66753;53.848;10.658;2023-05-07T08:58:07;5.63;;;3.72;;
25984;SDS011;66753;53.848;10.658;2023-05-07T09:13:08;5.85;;;3.88;;
25984;SDS011;66753;53.848;10.658;2023-05-07T09:28:09;3.73;;;2.43;;
25984;SDS011;66753;53.848;10.658;2023-05-07T09:43:11;4.27;;;3.07;;
25984;SDS011;66753;53.848;10.658;2023-05-07T09:58:14;4.47;;;2.60;;
25984;SDS011;66753;53.848;10.658;2023-05-07T10:13:17;3.30;;;2.20;;
25984;SDS011;66753;53.848;10.658;2023-05-07T10:28:19;4.10;;;2.07;;
25984;SDS011;66753;53.848;10.658;2023-05-07T10:43:22;3.43;;;2.03;;
25984;SDS011;66753;53.848;10.658;2023-05-07T11:28:42;2.47;;;1.43;;
25984;SDS011;66753;53.848;10.658;2023-05-07T11:43:53;2.40;;;1.50;;
25984;SDS011;66753;53.848;10.658;2023-05-07T11:58:57;2.83;;;1.70;;
25984;SDS011;66753;53.848;10.658;2023-05-07T12:13:58;2.40;;;1.60;;
25984;SDS011;66753;53.848;10.658;2023-05-07T12:28:58;3.15;;;1.58;;
25984;SDS011;66753;53.848;10.658;2023-05-07T12:43:59;3.65;;;1.70;;
25984;SDS011;66753;53.848;10.658;2023-05-07T12:58:59;3.58;;;1.60;;
25984;SDS011;66753;53.848;10.658;2023-05-07T13:14:00;3.55;;;1.50;;
25984;SDS011;66753;53.848;10.658;2023-05-07T13:29:00;3.58;;;2.17;;
25984;SDS011;66753;53.848;10.658;2023-05-07T13:44:00;2.85;;;1.60;;
25984;SDS011;66753;53.848;10.658;2023-05-07T13:59:01;3.17;;;1.80;;
25984;SDS011;66753;53.848;10.658;2023-05-07T14:14:01;3.40;;;1.60;;
25984;SDS011;66753;53.848;10.658;2023-05-07T14:29:02;3.10;;;1.70;;
25984;SDS011;66753;53.848;10.658;2023-05-07T14:44:03;2.85;;;1.58;;
25984;SDS011;66753;53.848;10.658;2023-05-07T14:59:04;2.75;;;1.90;;
25984;SDS011;66753;53.848;10.658;2023-05-07T15:14:04;3.22;;;1.70;;
25984;SDS011;66753;53.848;10.658;2023-05-07T15:29:05;3.88;;;1.75;;
25984;SDS011;66753;53.848;10.658;2023-05-07T15:44:10;2.03;;;1.40;;
25984;SDS011;66753;53.848;10.658;2023-05-07T15:59:10;3.28;;;1.58;;
25984;SDS011;66753;53.848;10.658;2023-05-07T16:14:12;8.90;;;6.90;;
25984;SDS011;66753;53.848;10.658;2023-05-07T16:29:13;3.43;;;1.80;;
25984;SDS011;66753;53.848;10.658;2023-05-07T16:44:15;14.13;;;12.63;;
25984;SDS011;66753;53.848;10.658;2023-05-07T16:59:17;3.30;;;2.33;;
25984;SDS011;66753;53.848;10.658;2023-05-07T17:14:18;2.75;;;1.63;;
25984;SDS011;66753;53.848;10.658;2023-05-07T17:29:18;3.42;;;1.75;;
25984;SDS011;66753;53.848;10.658;2023-05-07T17:44:19;2.90;;;1.80;;
25984;SDS011;66753;53.848;10.658;2023-05-07T17:59:20;2.47;;;1.67;;
25984;SDS011;66753;53.848;10.658;2023-05-07T18:14:20;3.40;;;2.03;;
25984;SDS011;66753;53.848;10.658;2023-05-07T18:29:24;2.60;;;1.43;;
25984;SDS011;66753;53.848;10.658;2023-05-07T18:44:25;3.35;;;2.00;;
25984;SDS011;66753;53.848;10.658;2023-05-07T18:59:25;3.30;;;1.60;;
25984;SDS011;66753;53.848;10.658;2023-05-07T19:14:26;5.00;;;1.65;;
25984;SDS011;66753;53.848;10.658;2023-05-07T19:29:26;3.25;;;1.70;;
25984;SDS011;66753;53.848;10.658;2023-05-07T19:44:27;3.55;;;2.20;;
25984;SDS011;66753;53.848;10.658;2023-05-07T19:59:27;4.07;;;2.63;;
25984;SDS011;66753;53.848;10.658;2023-05-07T20:14:28;3.65;;;2.08;;
25984;SDS011;66753;53.848;10.658;2023-05-07T20:29:28;4.30;;;1.90;;
25984;SDS011;66753;53.848;10.658;2023-05-07T20:44:30;4.15;;;1.80;;
25984;SDS011;66753;53.848;10.658;2023-05-07T20:59:34;3.33;;;1.97;;
25984;SDS011;66753;53.848;10.658;2023-05-07T21:14:35;4.85;;;1.95;;
25984;SDS011;66753;53.848;10.658;2023-05-07T21:29:37;3.00;;;1.90;;
25984;SDS011;66753;53.848;10.658;2023-05-07T21:44:38;4.03;;;2.17;;
25984;SDS011;66753;53.848;10.658;2023-05-07T21:59:38;3.97;;;2.10;;
25984;SDS011;66753;53.848;10.658;2023-05-07T22:14:38;5.05;;;2.17;;
25984;SDS011;66753;53.848;10.658;2023-05-07T22:29:39;5.28;;;2.05;;
25984;SDS011;66753;53.848;10.658;2023-05-07T22:44:40;4.03;;;1.88;;
25984;SDS011;66753;53.848;10.658;2023-05-07T22:59:40;4.97;;;2.03;;
25984;SDS011;66753;53.848;10.658;2023-05-07T23:14:40;4.20;;;1.88;;
25984;SDS011;66753;53.848;10.658;2023-05-07T23:29:44;4.80;;;2.07;;
25984;SDS011;66753;53.848;10.658;2023-05-07T23:44:45;3.13;;;1.93;;
25984;SDS011;66753;53.848;10.658;2023-05-07T23:59:45;4.95;;;2.28;;
